Weather observations for the past three days for
Leesburg International Airport
Metric (Imperial)
Date Time (edt) Wind (kph) Vis. (km) Weather Sky Cond. Temperature (ºC) Relative Humidity Wind Chill (°C) Heat Index (°C) Pressure Precipitation (cm)
Air Dwpt 6 hour altimeter (cm) sea level (mb) 1 hr 3 hr 6 hr
Max. Min.
06 06:53 Calm 16.09 A Few Clouds FEW027 25 24.4 96% 25 76 1012.9
06 05:53 Calm 16.09 Fair CLR 24.4 23.9 97% 24 75.95 1012.3
06 04:53 Calm 16.09 Fair CLR 24.4 23.9 97% 24 75.9 1011.7
06 03:53 Calm 16.09 Fair CLR 25.6 24.4 93% 27 75.9 1011.6
06 02:53 S 7 16.09 Fair CLR 25.6 24.4 93% 27 75.92 1011.9
06 01:53 SW 7 16.09 Fair CLR 25.6 24.4 27.8 25.6 93% 27 75.97 1012.6
06 00:53 S 11 16.09 Fair CLR 26.7 23.9 85% 29 76.02 1013.5
05 23:53 S 13 16.09 Overcast BKN029 OVC036 27.2 25 88% 31 76.05 1013.6
05 22:53 S 15 16.09 Fair CLR 27.8 24.4 82% 32 76.02 1013.5
05 21:53 SE 11 16.09 Mostly Cloudy BKN033 27.2 24.4 85% 31 76.02 1013.3
05 20:53 Calm 16.09 Fair CLR 26.1 24.4 90% 28 75.97 1012.7
05 19:53 Calm 16.09 Mostly Cloudy BKN038 27.2 24.4 30 26.1 85% 31 75.97 1012.6 0.53
05 18:53 Calm 16.09 Fair CLR 28.9 23.9 74% 33 75.97 1012.6
05 16:53 E 11 16.09 Fair CLR 27.8 24.4 82% 32 76 1012.9 0.53
05 13:53 W 20 G 37 6.44 Thunderstorm in Vicinity Haze BKN038 BKN045 30.6 23.9 32.8 25.6 67% 36 76.05 1013.8
05 12:53 Vrbl 6 16.09 Mostly Cloudy BKN026 BKN037 BKN045 32.2 24.4 63% 39 76.07 1014.1
05 11:53 SW 13 16.09 Mostly Cloudy BKN028 BKN045 31.7 25 68% 39 76.15 1015.0
05 10:53 SW 11 16.09 Fair CLR 30 25.6 77% 37 76.15 1015.1
05 09:53 SW 7 16.09 Fair CLR 28.9 25 80% 34 76.15 1015.2
05 08:53 Vrbl 6 16.09 Fair CLR 26.7 24.4 87% 30 76.15 1015.2
05 07:53 S 7 16.09 Fair CLR 25.6 24.4 26.1 25.6 93% 27 76.12 1014.8
05 06:53 S 11 16.09 Fair CLR 25.6 24.4 93% 27 76.07 1014.2
05 05:53 S 9 16.09 Fair CLR 25.6 24.4 93% 27 76.07 1014.1
05 04:53 S 9 16.09 Fair CLR 25.6 25 97% 27 76.07 1013.9
05 03:53 Calm 16.09 Fair CLR 25.6 25 97% 27 76.05 1013.9
05 02:53 SE 7 16.09 Fair CLR 26.1 25.6 97% 29 76.07 1014.1
05 01:53 S 6 16.09 Fair CLR 26.1 25.6 26.1 25.6 97% 29 76.12 1014.6
05 00:53 SE 9 16.09 Fair CLR 26.1 25 94% 28 76.15 1015.2
04 23:53 NE 6 16.09 Fair CLR 25.6 25 97% 27 76.2 1015.6
04 22:53 SE 9 16.09 Fair CLR 26.1 24.4 90% 28 76.2 1015.7
04 21:53 E 6 16.09 Fair CLR 26.1 25 94% 28 76.17 1015.5
04 20:53 SE 6 16.09 Fair CLR 26.1 24.4 90% 28 76.15 1015.0
04 19:53 S 6 16.09 Mostly Cloudy SCT049 SCT065 BKN095 26.1 25 33.3 25.6 94% 28 76.17 1015.4 0.03 0.71
04 18:53 S 7 16.09 Light Rain SCT110 26.1 25 94% 28 76.17 1015.3 0.05
04 17:53 Vrbl 6 16.09 Mostly Cloudy FEW049 SCT090 BKN110 26.1 24.4 90% 28 76.05 1013.7 0.03
04 16:53 S 15 12.87 Thunderstorm Light Rain SCT050 BKN075 OVC090 26.1 24.4 90% 28 76.1 1014.4 0.61 0.61
04 15:53 SE 11 16.09 Thunderstorm in Vicinity CLR 32.8 23.9 59% 39 76.07 1013.9
04 14:53 SE 9 16.09 A Few Clouds FEW085 32.8 24.4 61% 39 76.1 1014.5
04 13:53 S 6 16.09 Fair CLR 32.8 24.4 33.3 26.7 61% 39 76.17 1015.3
04 12:53 SE 11 16.09 Fair CLR 32.8 24.4 61% 39 76.23 1016.0
04 11:53 SE 9 16.09 Fair CLR 31.7 24.4 65% 38 76.28 1016.7
04 10:53 Calm 16.09 Fair CLR 30 25 75% 36 76.23 1016.2
04 09:53 S 9 16.09 Fair CLR 28.3 25 82% 33 76.25 1016.3
04 08:53 S 9 16.09 Fair CLR 27.8 24.4 82% 32 76.23 1016.0
04 07:53 SE 6 16.09 Fair CLR 26.7 24.4 26.7 25.6 87% 30 76.17 1015.5
04 06:53 S 9 16.09 Fair CLR 26.1 23.9 88% 28 76.15 1015.0
04 05:53 SE 7 16.09 Fair CLR 26.1 23.9 88% 28 76.1 1014.5
04 04:53 SE 6 16.09 Fair CLR 25.6 23.9 90% 27 76.1 1014.5
04 03:53 SE 6 16.09 Fair CLR 25.6 23.9 90% 27 76.1 1014.3
04 02:53 SE 9 16.09 Fair CLR 26.1 23.9 88% 28 76.07 1014.2
04 01:53 E 6 16.09 Mostly Cloudy BKN036 26.1 23.9 28.3 26.1 88% 28 76.12 1014.8
04 00:53 SE 9 16.09 Mostly Cloudy BKN040 26.1 23.9 88% 28 76.17 1015.2
03 23:53 SE 11 16.09 Fair CLR 26.7 23.9 85% 29 76.15 1015.1
03 22:53 SE 15 16.09 A Few Clouds FEW016 27.2 23.9 82% 30 76.15 1015.1
03 21:53 E 11 16.09 Partly Cloudy SCT017 27.8 25 85% 32 76.12 1014.8
03 20:53 SE 11 16.09 A Few Clouds FEW019 FEW110 27.8 25 85% 32 76.1 1014.6
03 19:53 SE 13 16.09 A Few Clouds FEW110 28.3 25 31.7 28.3 82% 33 76.1 1014.3
03 18:53 SE 15 16.09 Fair CLR 28.9 25 80% 34 76.05 1013.9
03 17:53 E 9 16.09 Partly Cloudy SCT025 SCT050 30 23.9 70% 35 76.02 1013.5
03 16:53 E 13 16.09 Overcast BKN024 BKN036 OVC045 31.7 24.4 65% 38 76 1013.1
03 15:53 SE 13 16.09 Light Rain BKN025 BKN037 BKN047 28.9 25 80% 34 76.07 1013.9
03 14:53 SE 9 16.09 Fair CLR 30 24.4 72% 36 76.1 1014.4
03 13:53 SE 11 16.09 Fair CLR 30.6 24.4 30.6 25.6 70% 36 76.12 1014.8 0.03
03 12:53 Vrbl 9 16.09 Overcast OVC095 30 24.4 72% 36 76.2 1015.7
03 11:53 SE 15 16.09 Mostly Cloudy BKN110 28.9 23.9 74% 33 76.23 1016.0
03 10:53 E 11 16.09 Mostly Cloudy FEW014 BKN120 27.8 25.6 88% 33 76.2 1015.9 0.03 0.03
03 09:53 NE 9 14.48 Light Rain BKN100 26.1 25.6 97% 29 76.2 1015.7
03 08:53 NE 9 16.09 Fair CLR 25.6 25 97% 27 76.17 1015.5
03 07:53 NE 11 16.09 Fair CLR 25.6 25 25.6 24.4 97% 27 76.15 1015.2
Date Time (edt) Wind (kph) Vis. (km) Weather Sky Cond. Air Dwpt Max. Min. Relative Humidity Wind Chill (°C) Heat Index (°C) altimeter (cm) sea level (mb) 1 hr 3 hr 6 hr
6 hour
Temperature (ºC) Pressure Precipitation (cm)